Terminal Aerodrome Forecast
Issued by NWS

Home | Current Version | Previous Version | Text Only | Print | Product List | Glossary On
Versions: 1 2 3 4 5 6 7 8 9 10 11 12 13 14 15 16 17
000
FTUS44 KJAN 121700
TAFGTR
TAF
KGTR 121724Z 1218/1318 06004KT P6SM FEW040
     FM130700 00000KT 6SM BR SKC
     FM131300 18005KT P6SM SCT030=

USA.gov is the U.S. government's official web portal to all federal, state and local government web resources and services.